createdAt,value
2018-12-25T00:01:55.096Z,9.07
2018-12-25T00:04:24.210Z,13.93
2018-12-25T00:06:53.160Z,12.70
2018-12-25T00:09:22.236Z,9.20
2018-12-25T00:11:51.236Z,9.47
2018-12-25T00:14:20.252Z,8.87
2018-12-25T00:16:49.227Z,7.90
2018-12-25T00:19:18.260Z,7.50
2018-12-25T00:21:47.233Z,9.77
2018-12-25T00:24:16.520Z,8.00
2018-12-25T00:26:45.454Z,9.77
2018-12-25T00:29:14.519Z,9.57
2018-12-25T00:31:43.429Z,9.53
2018-12-25T00:34:12.407Z,9.37
2018-12-25T00:36:41.414Z,13.33
2018-12-25T00:39:10.440Z,10.47
2018-12-25T00:41:39.349Z,10.10
2018-12-25T00:44:08.450Z,8.73
2018-12-25T00:46:37.445Z,9.70
2018-12-25T00:49:14.563Z,11.67
2018-12-25T00:51:37.143Z,11.23
2018-12-25T00:54:06.139Z,9.40
2018-12-25T00:56:35.093Z,10.97
2018-12-25T00:59:04.069Z,10.27
2018-12-25T01:01:33.051Z,9.40
2018-12-25T01:04:02.043Z,9.23
2018-12-25T01:06:31.068Z,8.87
2018-12-25T01:09:00.131Z,6.60
2018-12-25T01:11:29.023Z,8.43
2018-12-25T01:13:58.106Z,8.07
2018-12-25T01:16:27.105Z,9.10
2018-12-25T01:18:56.092Z,8.17
2018-12-25T01:21:25.048Z,8.17
2018-12-25T01:23:53.950Z,8.97
2018-12-25T01:26:22.948Z,10.67
2018-12-25T01:28:52.144Z,8.00
2018-12-25T01:31:21.051Z,8.63
2018-12-25T01:33:50.046Z,6.30
2018-12-25T01:36:18.976Z,7.17
2018-12-25T01:38:47.973Z,9.90
2018-12-25T01:41:16.797Z,10.43
2018-12-25T01:43:45.718Z,7.00
2018-12-25T01:46:14.688Z,8.23
2018-12-25T01:48:43.676Z,7.17
2018-12-25T01:51:12.554Z,7.23
2018-12-25T01:53:41.454Z,7.90
2018-12-25T01:56:10.455Z,8.07
2018-12-25T01:58:39.396Z,9.57
2018-12-25T02:01:08.302Z,8.90
2018-12-25T02:03:37.298Z,10.83
2018-12-25T02:06:06.346Z,11.90
2018-12-25T02:08:35.373Z,8.30
2018-12-25T02:11:04.406Z,8.57
2018-12-25T02:13:33.445Z,9.13
2018-12-25T02:16:02.284Z,10.43
2018-12-25T02:18:31.182Z,8.83
2018-12-25T02:21:00.194Z,8.23
2018-12-25T02:23:29.168Z,8.73
2018-12-25T02:25:58.169Z,15.67
2018-12-25T02:28:27.361Z,10.53
2018-12-25T02:30:56.272Z,9.63
2018-12-25T02:33:25.233Z,8.07
2018-12-25T02:36:13.416Z,11.00
2018-12-25T02:38:42.381Z,10.37
2018-12-25T02:41:11.288Z,10.30
2018-12-25T02:43:40.298Z,9.87
2018-12-25T02:46:09.306Z,8.60
2018-12-25T02:48:38.223Z,10.13
2018-12-25T02:51:07.254Z,10.07
2018-12-25T02:53:36.348Z,11.73
2018-12-25T02:56:05.384Z,12.00
2018-12-25T02:58:34.562Z,11.20
2018-12-25T03:01:03.586Z,14.60
2018-12-25T03:03:32.548Z,12.17
2018-12-25T03:06:01.557Z,10.17
2018-12-25T03:08:30.603Z,9.57
2018-12-25T03:10:59.528Z,11.13
2018-12-25T03:13:28.498Z,10.40
2018-12-25T03:15:57.548Z,11.83
2018-12-25T03:18:26.628Z,12.90
2018-12-25T03:20:55.686Z,9.93
2018-12-25T03:23:24.678Z,10.53
2018-12-25T03:25:53.651Z,12.00
2018-12-25T03:28:22.767Z,8.40
2018-12-25T03:30:51.850Z,9.73
2018-12-25T03:33:20.769Z,10.07
2018-12-25T03:35:49.824Z,13.37
2018-12-25T03:38:18.764Z,9.90
2018-12-25T03:40:47.759Z,11.47
2018-12-25T03:43:16.681Z,11.10
2018-12-25T03:45:45.666Z,10.50
2018-12-25T03:48:14.743Z,10.50
2018-12-25T03:50:43.746Z,10.83
2018-12-25T03:53:12.743Z,11.90
2018-12-25T03:55:41.626Z,11.67
2018-12-25T03:58:10.650Z,12.20
2018-12-25T04:00:39.635Z,13.37
2018-12-25T04:03:08.643Z,13.27
2018-12-25T04:05:37.753Z,11.90
2018-12-25T04:08:06.851Z,11.60
2018-12-25T04:10:36.014Z,12.67
2018-12-25T04:13:05.120Z,11.53
2018-12-25T04:15:34.083Z,10.50
2018-12-25T04:18:03.135Z,9.03
2018-12-25T04:20:32.201Z,11.23
2018-12-25T04:23:01.284Z,11.70
2018-12-25T04:25:30.170Z,10.30
2018-12-25T04:27:59.178Z,12.07
2018-12-25T04:30:28.285Z,10.10
2018-12-25T04:32:57.290Z,10.30
2018-12-25T04:35:26.309Z,10.27
2018-12-25T04:37:55.380Z,9.47
2018-12-25T04:40:24.397Z,8.67
2018-12-25T04:42:53.333Z,8.53
2018-12-25T04:45:22.392Z,10.53
2018-12-25T04:47:51.452Z,9.00
2018-12-25T04:50:29.030Z,8.83
2018-12-25T04:52:51.191Z,7.87
2018-12-25T04:55:20.178Z,9.57
2018-12-25T04:57:49.123Z,9.47
2018-12-25T05:00:18.123Z,9.43
2018-12-25T05:02:47.015Z,10.77
2018-12-25T05:05:15.981Z,9.30
2018-12-25T05:07:47.625Z,9.10
2018-12-25T05:10:16.607Z,9.37
2018-12-25T05:12:45.551Z,8.43
2018-12-25T05:15:14.527Z,10.70
2018-12-25T05:17:43.545Z,10.57
2018-12-25T05:20:12.505Z,12.03
2018-12-25T05:22:41.421Z,10.90
2018-12-25T05:25:10.365Z,12.30
2018-12-25T05:27:39.381Z,9.37
2018-12-25T05:30:08.366Z,9.43
2018-12-25T05:32:37.639Z,9.03
2018-12-25T05:35:06.686Z,10.07
2018-12-25T05:37:35.774Z,10.47
2018-12-25T05:40:04.958Z,10.37
2018-12-25T05:42:33.974Z,10.50
2018-12-25T05:45:03.040Z,8.83
2018-12-25T05:47:31.960Z,9.27
2018-12-25T05:50:01.146Z,10.90
2018-12-25T05:52:30.143Z,8.47
2018-12-25T05:54:59.096Z,9.60
2018-12-25T05:57:28.111Z,10.73
2018-12-25T05:59:57.024Z,7.43
2018-12-25T06:02:25.928Z,10.37
2018-12-25T06:04:54.866Z,8.27
2018-12-25T06:07:23.886Z,8.50
2018-12-25T06:09:55.958Z,8.97
2018-12-25T06:12:24.980Z,9.97
2018-12-25T06:14:53.893Z,9.30
2018-12-25T06:17:22.878Z,10.10
2018-12-25T06:19:51.827Z,11.17
2018-12-25T06:22:20.909Z,8.40
2018-12-25T06:24:49.817Z,7.03
2018-12-25T06:27:18.819Z,8.57
2018-12-25T06:29:47.829Z,10.13
2018-12-25T06:32:16.869Z,8.70
2018-12-25T06:34:45.882Z,9.30
2018-12-25T06:37:14.843Z,6.60
2018-12-25T06:39:43.832Z,8.53
2018-12-25T06:42:12.955Z,9.33
2018-12-25T06:44:41.861Z,9.37
2018-12-25T06:47:11.443Z,7.53
2018-12-25T06:49:40.543Z,7.23
2018-12-25T06:52:09.444Z,9.53
2018-12-25T06:54:39.446Z,9.43
2018-12-25T06:57:08.667Z,6.77
2018-12-25T06:59:37.651Z,9.07
2018-12-25T07:02:06.778Z,7.53
2018-12-25T07:04:35.722Z,7.47
2018-12-25T07:07:04.722Z,7.57
2018-12-25T07:09:34.117Z,6.83
2018-12-25T07:12:03.385Z,10.00
2018-12-25T07:14:32.325Z,7.40
2018-12-25T07:17:20.499Z,8.40
2018-12-25T07:19:49.453Z,7.33
2018-12-25T07:22:18.519Z,10.30
2018-12-25T07:24:47.433Z,6.27
2018-12-25T07:27:16.813Z,6.97
2018-12-25T07:29:46.354Z,6.13
2018-12-25T07:32:15.454Z,7.63
2018-12-25T07:34:44.483Z,7.53
2018-12-25T07:37:13.735Z,9.07
2018-12-25T07:39:43.020Z,7.70
2018-12-25T07:42:12.128Z,8.23
2018-12-25T07:44:41.264Z,7.93
2018-12-25T07:47:11.318Z,8.87
2018-12-25T07:49:40.456Z,9.40
2018-12-25T07:52:09.669Z,11.27
2018-12-25T07:54:38.620Z,8.93
2018-12-25T07:57:07.857Z,16.53
2018-12-25T07:59:36.870Z,10.90
2018-12-25T08:02:05.954Z,9.00
2018-12-25T08:04:34.867Z,8.73
2018-12-25T08:07:03.878Z,9.97
2018-12-25T08:09:32.908Z,11.10
2018-12-25T08:12:02.061Z,11.03
2018-12-25T08:14:31.064Z,9.67
2018-12-25T08:17:00.164Z,11.17
2018-12-25T08:19:30.406Z,9.47
2018-12-25T08:21:59.357Z,10.67
2018-12-25T08:24:28.392Z,13.87
2018-12-25T08:26:57.227Z,12.17
2018-12-25T08:29:26.150Z,14.50
2018-12-25T08:31:55.368Z,13.73
2018-12-25T08:34:24.377Z,11.60
2018-12-25T08:36:53.359Z,13.33
2018-12-25T08:39:22.364Z,12.80
2018-12-25T08:41:51.544Z,12.10
2018-12-25T08:44:20.561Z,14.20
2018-12-25T08:46:49.678Z,12.93
2018-12-25T08:49:18.876Z,14.10
2018-12-25T08:51:48.045Z,14.87
2018-12-25T08:54:16.919Z,17.57
2018-12-25T08:56:45.863Z,16.67
2018-12-25T08:59:34.406Z,13.90
2018-12-25T09:02:03.392Z,16.40
2018-12-25T09:04:32.397Z,14.87
2018-12-25T09:07:01.287Z,14.67
2018-12-25T09:09:30.329Z,17.40
2018-12-25T09:11:59.392Z,15.80
2018-12-25T09:14:28.425Z,16.07
2018-12-25T09:16:57.645Z,18.93
2018-12-25T09:19:26.752Z,19.13
2018-12-25T09:21:55.849Z,19.43
2018-12-25T09:24:25.008Z,16.30
2018-12-25T09:26:54.175Z,16.83
2018-12-25T09:29:23.220Z,16.07
2018-12-25T09:31:52.374Z,17.10
2018-12-25T09:34:21.512Z,18.77
2018-12-25T09:36:50.546Z,21.70
2018-12-25T09:39:19.474Z,18.33
2018-12-25T09:41:48.411Z,16.97
2018-12-25T09:44:17.463Z,17.03
2018-12-25T09:46:46.384Z,16.53
2018-12-25T09:49:15.258Z,18.00
2018-12-25T09:51:44.518Z,15.80
2018-12-25T09:54:13.434Z,16.77
2018-12-25T09:56:42.570Z,18.70
2018-12-25T09:59:11.457Z,21.10
2018-12-25T10:01:40.458Z,19.33
2018-12-25T10:04:09.470Z,17.37
2018-12-25T10:06:38.672Z,18.80
2018-12-25T10:09:08.822Z,21.40
2018-12-25T10:11:44.266Z,18.67
2018-12-25T10:14:08.438Z,18.07
2018-12-25T10:16:37.465Z,20.30
2018-12-25T10:19:06.493Z,17.03
2018-12-25T10:21:35.519Z,20.47
2018-12-25T10:24:04.531Z,21.03
2018-12-25T10:26:33.633Z,19.43
2018-12-25T10:29:02.492Z,19.50
2018-12-25T10:31:31.557Z,18.73
2018-12-25T10:34:00.589Z,20.27
2018-12-25T10:36:29.485Z,20.17
2018-12-25T10:38:58.555Z,16.77
2018-12-25T10:41:27.583Z,17.30
2018-12-25T10:43:56.601Z,15.40
2018-12-25T10:46:25.584Z,17.00
2018-12-25T10:48:54.618Z,18.17
2018-12-25T10:51:23.537Z,19.87
2018-12-25T10:53:52.532Z,20.03
2018-12-25T10:56:21.515Z,17.93
2018-12-25T10:58:50.526Z,20.47
2018-12-25T11:01:23.076Z,17.87
2018-12-25T11:03:52.186Z,18.67
2018-12-25T11:06:23.073Z,19.87
2018-12-25T11:08:52.144Z,20.07
2018-12-25T11:11:21.092Z,26.57
2018-12-25T11:13:50.112Z,20.27
2018-12-25T11:16:19.394Z,20.77
2018-12-25T11:18:49.196Z,18.50
2018-12-25T11:21:18.548Z,18.07
2018-12-25T11:23:47.576Z,22.77
2018-12-25T11:26:16.690Z,18.27
2018-12-25T11:28:45.686Z,20.80
2018-12-25T11:31:14.819Z,24.57
2018-12-25T11:33:43.942Z,19.27
2018-12-25T11:36:13.089Z,21.80
2018-12-25T11:38:42.171Z,17.83
2018-12-25T11:41:11.211Z,18.63
2018-12-25T11:43:40.302Z,19.93
2018-12-25T11:46:09.336Z,18.47
2018-12-25T11:48:39.510Z,22.40
2018-12-25T11:51:08.493Z,18.27
2018-12-25T11:53:38.082Z,18.40
2018-12-25T11:56:07.229Z,22.73
2018-12-25T11:58:36.245Z,22.07
2018-12-25T12:01:05.443Z,23.43
2018-12-25T12:03:34.568Z,20.47
2018-12-25T12:06:03.517Z,22.70
2018-12-25T12:08:32.662Z,22.87
2018-12-25T12:11:01.705Z,23.17
2018-12-25T12:13:30.715Z,19.53
2018-12-25T12:15:59.653Z,20.07
2018-12-25T12:18:28.605Z,20.33
2018-12-25T12:20:57.700Z,17.80
2018-12-25T12:23:26.622Z,23.20
2018-12-25T12:25:55.590Z,18.90
2018-12-25T12:28:24.888Z,20.33
2018-12-25T12:30:53.751Z,23.73
2018-12-25T12:33:22.762Z,20.43
2018-12-25T12:35:51.686Z,18.83
2018-12-25T12:38:20.787Z,20.07
2018-12-25T12:40:49.815Z,19.10
2018-12-25T12:43:18.944Z,21.37
2018-12-25T12:45:48.017Z,20.27
2018-12-25T12:48:17.108Z,17.50
2018-12-25T12:50:46.132Z,16.70
2018-12-25T12:53:15.122Z,20.87
2018-12-25T12:55:44.382Z,15.70
2018-12-25T12:58:13.280Z,21.37
2018-12-25T13:00:42.281Z,19.33
2018-12-25T13:03:11.400Z,21.53
2018-12-25T13:05:40.333Z,20.83
2018-12-25T13:08:09.449Z,19.47
2018-12-25T13:10:38.436Z,18.40
2018-12-25T13:13:07.443Z,18.97
2018-12-25T13:15:36.370Z,17.60
2018-12-25T13:18:05.427Z,17.37
2018-12-25T13:20:34.593Z,18.87
2018-12-25T13:23:05.765Z,21.27
2018-12-25T13:25:34.748Z,21.47
2018-12-25T13:28:03.827Z,18.10
2018-12-25T13:30:32.853Z,16.70
2018-12-25T13:33:01.941Z,19.73
2018-12-25T13:35:30.873Z,20.60
2018-12-25T13:37:59.783Z,20.10
2018-12-25T13:40:28.860Z,17.87
2018-12-25T13:42:58.017Z,21.03
2018-12-25T13:45:26.957Z,19.97
2018-12-25T13:47:56.039Z,16.90
2018-12-25T13:50:25.208Z,18.40
2018-12-25T13:53:02.603Z,18.70
2018-12-25T13:55:25.064Z,19.23
2018-12-25T13:57:54.069Z,18.23
2018-12-25T14:00:23.156Z,19.20
2018-12-25T14:02:52.253Z,21.20
2018-12-25T14:05:21.231Z,18.30
2018-12-25T14:07:50.405Z,17.37
2018-12-25T14:10:19.288Z,18.83
2018-12-25T14:12:48.468Z,18.50
2018-12-25T14:15:17.680Z,18.63
2018-12-25T14:17:46.768Z,19.33
2018-12-25T14:20:15.822Z,18.77
2018-12-25T14:22:44.790Z,19.10
2018-12-25T14:25:13.809Z,20.57
2018-12-25T14:27:43.036Z,21.77
2018-12-25T14:30:12.176Z,18.50
2018-12-25T14:32:41.115Z,18.03
2018-12-25T14:35:10.325Z,20.33
2018-12-25T14:37:39.344Z,19.87
2018-12-25T14:40:08.563Z,21.30
2018-12-25T14:42:37.436Z,18.47
2018-12-25T14:45:06.868Z,17.23
2018-12-25T14:47:36.078Z,16.63
2018-12-25T14:50:06.103Z,19.90
2018-12-25T14:52:35.292Z,19.40
2018-12-25T14:55:04.347Z,21.33
2018-12-25T14:57:33.282Z,21.63
2018-12-25T15:00:02.495Z,22.03
2018-12-25T15:02:31.384Z,19.23
2018-12-25T15:05:00.586Z,21.40
2018-12-25T15:07:29.783Z,19.53
2018-12-25T15:09:59.023Z,18.07
2018-12-25T15:12:27.933Z,20.33
2018-12-25T15:14:57.059Z,22.50
2018-12-25T15:17:26.097Z,19.20
2018-12-25T15:19:55.052Z,23.33
2018-12-25T15:22:24.010Z,18.27
2018-12-25T15:24:52.920Z,19.77
2018-12-25T15:27:22.044Z,20.90
2018-12-25T15:29:51.156Z,22.03
2018-12-25T15:32:20.196Z,19.23
2018-12-25T15:34:50.009Z,21.00
2018-12-25T15:37:18.930Z,19.57
2018-12-25T15:39:47.938Z,20.57
2018-12-25T15:42:17.040Z,19.20
2018-12-25T15:44:47.158Z,21.80
2018-12-25T15:47:16.173Z,21.07
2018-12-25T15:49:45.180Z,20.50
2018-12-25T15:52:14.222Z,23.30
2018-12-25T15:54:43.455Z,20.43
2018-12-25T15:57:13.626Z,21.83
2018-12-25T15:59:43.554Z,21.50
2018-12-25T16:02:13.074Z,19.40
2018-12-25T16:04:42.346Z,18.60
2018-12-25T16:07:11.449Z,17.97
2018-12-25T16:09:40.709Z,19.93
2018-12-25T16:12:09.898Z,17.83
2018-12-25T16:14:38.783Z,23.93
2018-12-25T16:17:07.849Z,22.27
2018-12-25T16:19:56.069Z,22.07
2018-12-25T16:22:25.265Z,22.53
2018-12-25T16:24:54.374Z,18.47
2018-12-25T16:27:23.415Z,20.70
2018-12-25T16:29:52.399Z,23.33
2018-12-25T16:32:21.423Z,21.60
2018-12-25T16:34:50.569Z,23.73
2018-12-25T16:37:19.676Z,21.47
2018-12-25T16:39:48.892Z,22.33
2018-12-25T16:42:17.936Z,23.33
2018-12-25T16:44:46.928Z,22.67
2018-12-25T16:47:15.978Z,21.33
2018-12-25T16:49:45.004Z,23.87
2018-12-25T16:52:14.222Z,21.63
2018-12-25T16:54:43.299Z,21.57
2018-12-25T16:57:12.357Z,22.90
2018-12-25T16:59:41.456Z,23.17
2018-12-25T17:02:10.462Z,23.83
2018-12-25T17:04:39.566Z,21.30
2018-12-25T17:07:08.591Z,20.37
2018-12-25T17:09:37.544Z,16.73
2018-12-25T17:12:06.677Z,28.77
2018-12-25T17:14:35.627Z,16.17
2018-12-25T17:17:04.662Z,17.77
2018-12-25T17:19:33.737Z,16.30
2018-12-25T17:22:02.827Z,17.50
2018-12-25T17:24:31.863Z,22.13
2018-12-25T17:27:00.825Z,21.47
2018-12-25T17:29:29.771Z,24.20
2018-12-25T17:31:58.735Z,22.63
2018-12-25T17:34:27.967Z,19.47
2018-12-25T17:36:57.036Z,18.97
2018-12-25T17:39:26.307Z,18.30
2018-12-25T17:41:55.292Z,20.20
2018-12-25T17:44:24.532Z,20.30
2018-12-25T17:46:53.626Z,22.67
2018-12-25T17:49:23.038Z,20.37
2018-12-25T17:51:52.064Z,21.73
2018-12-25T17:54:20.994Z,20.27
2018-12-25T17:56:49.863Z,23.40
2018-12-25T17:59:18.860Z,18.37
2018-12-25T18:01:47.715Z,19.77
2018-12-25T18:04:16.755Z,20.90
2018-12-25T18:06:45.750Z,20.07
2018-12-25T18:09:14.899Z,23.13
2018-12-25T18:11:44.065Z,24.53
2018-12-25T18:14:13.106Z,22.97
2018-12-25T18:16:42.248Z,20.83
2018-12-25T18:19:11.300Z,23.37
2018-12-25T18:21:40.296Z,22.13
2018-12-25T18:24:09.275Z,24.57
2018-12-25T18:26:38.651Z,21.67
2018-12-25T18:29:07.869Z,18.43
2018-12-25T18:31:56.016Z,19.97
2018-12-25T18:34:25.004Z,20.00
2018-12-25T18:37:03.165Z,22.53
2018-12-25T18:39:32.185Z,21.03
2018-12-25T18:42:01.313Z,22.20
2018-12-25T18:44:30.455Z,21.63
2018-12-25T18:46:59.423Z,20.47
2018-12-25T18:49:28.393Z,23.07
2018-12-25T18:51:57.408Z,22.90
2018-12-25T18:54:27.969Z,23.40
2018-12-25T18:56:57.179Z,23.33
2018-12-25T18:59:26.090Z,25.40
2018-12-25T19:01:55.132Z,23.40
2018-12-25T19:04:24.265Z,24.27
2018-12-25T19:06:53.363Z,23.17
2018-12-25T19:09:22.397Z,24.73
2018-12-25T19:11:51.476Z,19.57
2018-12-25T19:14:20.529Z,20.87
2018-12-25T19:16:51.553Z,20.77
2018-12-25T19:19:20.798Z,21.33
2018-12-25T19:21:49.832Z,22.33
2018-12-25T19:24:19.022Z,24.37
2018-12-25T19:26:47.998Z,26.63
2018-12-25T19:29:17.178Z,27.10
2018-12-25T19:31:46.305Z,21.67
2018-12-25T19:34:15.251Z,22.53
2018-12-25T19:36:44.321Z,23.77
2018-12-25T19:39:13.252Z,24.67
2018-12-25T19:41:42.262Z,28.07
2018-12-25T19:44:11.386Z,23.17
2018-12-25T19:46:40.416Z,24.87
2018-12-25T19:49:09.361Z,24.27
2018-12-25T19:51:38.405Z,23.80
2018-12-25T19:54:07.847Z,23.50
2018-12-25T19:56:36.846Z,25.53
2018-12-25T19:59:05.804Z,24.53
2018-12-25T20:01:34.815Z,25.50
2018-12-25T20:04:48.168Z,22.33
2018-12-25T20:07:55.826Z,21.07
2018-12-25T20:10:39.901Z,20.50
2018-12-25T20:13:49.870Z,20.67
2018-12-25T20:16:43.959Z,22.40
2018-12-25T20:20:09.361Z,27.03
2018-12-25T20:23:08.710Z,23.67
2018-12-25T20:26:08.851Z,28.00
2018-12-25T20:29:34.781Z,26.73
2018-12-25T20:32:40.141Z,21.53
2018-12-25T20:35:36.226Z,24.77
2018-12-25T20:38:36.882Z,24.80
2018-12-25T20:41:47.861Z,26.77
2018-12-25T20:44:54.007Z,24.93
2018-12-25T20:48:06.130Z,28.80
2018-12-25T20:51:13.950Z,27.20
2018-12-25T20:54:15.006Z,24.73
2018-12-25T20:57:11.499Z,25.63
2018-12-25T21:00:09.276Z,26.57
2018-12-25T21:03:31.640Z,28.47
2018-12-25T21:06:26.878Z,28.17
2018-12-25T21:09:28.384Z,31.10
2018-12-25T21:12:53.656Z,28.70
2018-12-25T21:16:05.178Z,29.67
2018-12-25T21:19:03.504Z,24.50
2018-12-25T21:22:16.887Z,26.00
2018-12-25T21:25:22.155Z,28.63
2018-12-25T21:27:49.765Z,32.30
2018-12-25T21:30:18.760Z,34.20
2018-12-25T21:32:48.167Z,29.87
2018-12-25T21:35:26.670Z,31.83
2018-12-25T21:37:57.248Z,35.80
2018-12-25T21:40:26.357Z,34.10
2018-12-25T21:42:55.545Z,34.77
2018-12-25T21:45:24.569Z,33.67
2018-12-25T21:47:53.456Z,31.30
2018-12-25T21:50:23.097Z,30.53
2018-12-25T21:52:53.179Z,34.53
2018-12-25T21:55:22.196Z,36.97
2018-12-25T21:57:51.739Z,34.77
2018-12-25T22:00:22.233Z,35.30
2018-12-25T22:02:51.663Z,34.47
2018-12-25T22:05:20.888Z,33.77
2018-12-25T22:07:49.942Z,32.67
2018-12-25T22:10:18.943Z,29.10
2018-12-25T22:12:48.075Z,35.20
2018-12-25T22:15:17.103Z,35.57
2018-12-25T22:17:46.165Z,37.43
2018-12-25T22:20:21.040Z,38.63
2018-12-25T22:22:50.158Z,37.63
2018-12-25T22:25:26.877Z,39.00
2018-12-25T22:27:49.796Z,37.33
2018-12-25T22:30:18.893Z,37.93
2018-12-25T22:32:47.805Z,43.00
2018-12-25T22:35:16.836Z,42.17
2018-12-25T22:37:46.090Z,35.27
2018-12-25T22:40:15.481Z,42.23
2018-12-25T22:42:44.498Z,37.50
2018-12-25T22:45:13.507Z,40.37
2018-12-25T22:47:42.515Z,38.13
2018-12-25T22:50:11.538Z,41.83
2018-12-25T22:52:40.957Z,41.43
2018-12-25T22:55:11.120Z,40.40
2018-12-25T22:57:40.086Z,43.60
2018-12-25T23:00:11.715Z,40.07
2018-12-25T23:02:40.731Z,41.37
2018-12-25T23:05:09.811Z,36.57
2018-12-25T23:07:38.855Z,36.97
2018-12-25T23:10:09.165Z,42.27
2018-12-25T23:12:38.191Z,40.33
2018-12-25T23:15:08.466Z,38.67
2018-12-25T23:17:37.606Z,35.30
2018-12-25T23:20:06.920Z,40.50
2018-12-25T23:22:35.989Z,41.93
2018-12-25T23:25:05.319Z,41.63
2018-12-25T23:27:34.556Z,37.43
2018-12-25T23:30:03.418Z,38.30
2018-12-25T23:32:35.580Z,37.47
2018-12-25T23:35:04.728Z,35.80
2018-12-25T23:37:33.714Z,37.47
2018-12-25T23:40:02.719Z,33.50
2018-12-25T23:42:31.692Z,34.33
2018-12-25T23:45:02.864Z,35.30
2018-12-25T23:47:31.275Z,33.63
2018-12-25T23:50:00.523Z,36.37
2018-12-25T23:52:29.448Z,33.80
2018-12-25T23:54:58.986Z,36.27
2018-12-25T23:57:28.154Z,35.93
